createdAt,value
2023-08-10T00:00:00.077Z,101347.06
2023-08-10T00:02:26.502Z,101273.53
2023-08-10T00:04:52.893Z,101326.25
2023-08-10T00:07:19.309Z,101330.31
2023-08-10T00:09:45.692Z,101272.44
2023-08-10T00:12:12.688Z,101283.31
2023-08-10T00:14:39.078Z,101373.91
2023-08-10T00:17:05.463Z,101378.41
2023-08-10T00:19:31.916Z,101372.44
2023-08-10T00:21:58.302Z,101360.34
2023-08-10T00:24:24.775Z,101351.75
2023-08-10T00:26:51.217Z,101308.75
2023-08-10T00:29:17.897Z,101383.03
2023-08-10T00:31:44.299Z,101271.84
2023-08-10T00:34:10.708Z,101351.44
2023-08-10T00:36:37.368Z,101368.25
2023-08-10T00:39:04.122Z,101368.00
2023-08-10T00:41:30.550Z,101351.59
2023-08-10T00:43:56.972Z,101376.53
2023-08-10T00:46:23.566Z,101356.50
2023-08-10T00:48:50.068Z,101384.13
2023-08-10T00:51:16.612Z,101354.44
2023-08-10T00:53:43.044Z,101363.41
2023-08-10T00:56:11.663Z,101357.72
2023-08-10T00:58:38.363Z,101365.25
2023-08-10T01:01:05.221Z,101349.38
2023-08-10T01:03:31.951Z,101363.94
2023-08-10T01:06:11.454Z,101383.78
2023-08-10T01:09:12.695Z,101371.22
2023-08-10T01:11:49.616Z,101368.81
2023-08-10T01:14:31.985Z,101387.34
2023-08-10T01:17:01.913Z,101349.38
2023-08-10T01:19:36.793Z,101408.22
2023-08-10T01:22:26.088Z,101409.84
2023-08-10T01:25:07.290Z,101404.69
2023-08-10T01:27:37.519Z,101381.69
2023-08-10T01:30:05.800Z,101406.81
2023-08-10T01:32:33.631Z,101373.16
2023-08-10T01:35:01.625Z,101282.88
2023-08-10T01:37:28.274Z,101314.34
2023-08-10T01:39:54.737Z,101345.75
2023-08-10T01:42:21.104Z,101309.19
2023-08-10T01:44:47.517Z,101336.81
2023-08-10T01:47:23.280Z,101388.44
2023-08-10T01:49:54.186Z,101347.78
2023-08-10T01:52:25.727Z,101320.38
2023-08-10T01:54:53.059Z,101325.69
2023-08-10T01:57:19.872Z,101373.44
2023-08-10T01:59:46.460Z,101378.09
2023-08-10T02:02:12.854Z,101377.84
2023-08-10T02:04:39.274Z,101357.53
2023-08-10T02:07:05.846Z,101311.41
2023-08-10T02:09:33.205Z,101396.69
2023-08-10T02:11:59.632Z,101394.88
2023-08-10T02:14:26.738Z,101331.25
2023-08-10T02:16:53.241Z,101359.16
2023-08-10T02:19:19.712Z,101391.03
2023-08-10T02:21:46.098Z,101284.25
2023-08-10T02:24:12.489Z,101333.25
2023-08-10T02:26:38.953Z,101384.09
2023-08-10T02:29:05.521Z,101386.31
2023-08-10T02:31:32.511Z,101363.03
2023-08-10T02:33:59.049Z,101379.78
2023-08-10T02:36:25.468Z,101382.50
2023-08-10T02:38:51.846Z,101279.81
2023-08-10T02:41:18.269Z,101316.25
2023-08-10T02:43:44.729Z,101400.31
2023-08-10T02:46:11.242Z,101281.63
2023-08-10T02:48:37.924Z,101374.97
2023-08-10T02:51:04.299Z,101415.16
2023-08-10T02:53:30.806Z,101353.91
2023-08-10T02:55:57.235Z,101371.00
2023-08-10T02:58:23.692Z,101360.63
2023-08-10T03:00:50.192Z,101287.00
2023-08-10T03:03:16.649Z,101326.03
2023-08-10T03:05:43.099Z,101381.78
2023-08-10T03:08:09.483Z,101380.38
2023-08-10T03:10:35.860Z,101365.41
2023-08-10T03:13:02.278Z,101395.50
2023-08-10T03:15:28.950Z,101319.97
2023-08-10T03:17:55.425Z,101319.06
2023-08-10T03:20:22.742Z,101377.19
2023-08-10T03:22:49.171Z,101325.88
2023-08-10T03:25:15.810Z,101434.69
2023-08-10T03:27:42.312Z,101401.06
2023-08-10T03:30:09.172Z,101397.31
2023-08-10T03:32:35.675Z,101411.38
2023-08-10T03:35:02.227Z,101413.50
2023-08-10T03:37:28.719Z,101326.53
2023-08-10T03:39:55.107Z,101347.06
2023-08-10T03:42:21.536Z,101400.41
2023-08-10T03:44:48.004Z,101404.69
2023-08-10T03:47:14.512Z,101332.56
2023-08-10T03:49:40.996Z,101407.41
2023-08-10T03:52:07.603Z,101417.09
2023-08-10T03:54:34.240Z,101383.41
2023-08-10T03:57:00.776Z,101353.72
2023-08-10T03:59:27.229Z,101360.28
2023-08-10T04:01:55.218Z,101412.19
2023-08-10T04:04:21.682Z,101417.72
2023-08-10T04:06:49.312Z,101422.06
2023-08-10T04:09:15.796Z,101358.50
2023-08-10T04:11:42.310Z,101430.09
2023-08-10T04:14:08.762Z,101360.13
2023-08-10T04:16:35.322Z,101370.78
2023-08-10T04:19:01.762Z,101368.66
2023-08-10T04:21:28.251Z,101426.50
2023-08-10T04:23:54.725Z,101441.28
2023-08-10T04:26:21.122Z,101397.75
2023-08-10T04:28:47.824Z,101395.59
2023-08-10T04:31:15.161Z,101310.47
2023-08-10T04:33:41.694Z,101367.22
2023-08-10T04:36:08.552Z,101374.03
2023-08-10T04:38:35.978Z,101379.03
2023-08-10T04:41:02.400Z,101393.16
2023-08-10T04:43:29.428Z,101364.09
2023-08-10T04:45:55.973Z,101355.03
2023-08-10T04:48:22.393Z,101350.75
2023-08-10T04:50:48.819Z,101368.63
2023-08-10T04:53:15.549Z,101353.00
2023-08-10T04:55:42.041Z,101336.13
2023-08-10T04:58:08.641Z,101347.63
2023-08-10T05:00:35.112Z,101361.97
2023-08-10T05:03:01.741Z,101261.28
2023-08-10T05:05:28.375Z,101322.69
2023-08-10T05:07:54.892Z,101344.34
2023-08-10T05:10:21.337Z,101357.53
2023-08-10T05:12:48.415Z,101356.03
2023-08-10T05:15:15.344Z,101381.06
2023-08-10T05:17:42.588Z,101365.22
2023-08-10T05:20:12.932Z,101469.91
2023-08-10T05:22:43.522Z,101337.13
2023-08-10T05:25:11.616Z,101475.94
2023-08-10T05:27:39.651Z,101452.59
2023-08-10T05:30:09.823Z,101380.94
2023-08-10T05:32:37.544Z,101328.41
2023-08-10T05:35:06.042Z,101380.88
2023-08-10T05:37:32.480Z,101361.22
2023-08-10T05:39:58.956Z,101371.53
2023-08-10T05:42:25.367Z,101398.97
2023-08-10T05:44:51.883Z,101388.16
2023-08-10T05:47:18.790Z,101450.97
2023-08-10T05:49:45.221Z,101373.22
2023-08-10T05:52:11.728Z,101431.94
2023-08-10T05:54:38.237Z,101324.50
2023-08-10T05:57:05.661Z,101356.53
2023-08-10T05:59:32.527Z,101415.06
2023-08-10T06:01:59.861Z,101414.09
2023-08-10T06:04:26.316Z,101373.38
2023-08-10T06:06:52.987Z,101358.44
2023-08-10T06:09:20.579Z,101430.75
2023-08-10T06:11:48.856Z,101363.59
2023-08-10T06:14:16.378Z,101285.78
2023-08-10T06:16:42.948Z,101427.88
2023-08-10T06:19:09.631Z,101362.69
2023-08-10T06:21:36.139Z,101430.03
2023-08-10T06:24:03.974Z,101379.66
2023-08-10T06:26:30.956Z,101464.03
2023-08-10T06:28:57.359Z,101326.75
2023-08-10T06:31:24.150Z,101449.00
2023-08-10T06:33:51.703Z,101437.38
2023-08-10T06:36:18.140Z,101373.66
2023-08-10T06:38:44.503Z,101345.94
2023-08-10T06:41:10.930Z,101395.19
2023-08-10T06:43:38.059Z,101387.34
2023-08-10T06:46:04.587Z,101367.75
2023-08-10T06:48:31.019Z,101364.91
2023-08-10T06:50:58.203Z,101444.41
2023-08-10T06:53:24.733Z,101461.06
2023-08-10T06:55:52.131Z,101449.56
2023-08-10T07:00:48.885Z,101480.91
2023-08-10T07:03:15.383Z,101451.47
2023-08-10T07:05:43.532Z,101396.00
2023-08-10T07:08:11.148Z,101457.19
2023-08-10T07:10:38.205Z,101479.03
2023-08-10T07:13:04.972Z,101336.34
2023-08-10T07:15:33.108Z,101463.19
2023-08-10T07:18:00.930Z,101466.00
2023-08-10T07:20:29.715Z,101469.84
2023-08-10T07:22:56.156Z,101447.28
2023-08-10T07:25:23.135Z,101447.72
2023-08-10T07:27:49.848Z,101453.78
2023-08-10T07:30:16.591Z,101389.97
2023-08-10T07:32:43.564Z,101432.81
2023-08-10T07:35:10.690Z,101416.31
2023-08-10T07:37:37.797Z,101442.03
2023-08-10T07:40:04.488Z,101454.53
2023-08-10T07:42:31.002Z,101449.94
2023-08-10T07:44:57.488Z,101436.84
2023-08-10T07:47:23.901Z,101386.69
2023-08-10T07:49:50.544Z,101340.69
2023-08-10T07:52:16.982Z,101420.59
2023-08-10T07:54:43.531Z,101469.25
2023-08-10T07:57:09.956Z,101462.47
2023-08-10T07:59:36.396Z,101437.41
2023-08-10T08:02:05.589Z,101360.88
2023-08-10T08:04:32.338Z,101355.31
2023-08-10T08:06:59.177Z,101472.22
2023-08-10T08:09:25.912Z,101366.72
2023-08-10T08:11:52.330Z,101461.50
2023-08-10T08:14:18.781Z,101371.44
2023-08-10T08:16:45.306Z,101439.81
2023-08-10T08:19:11.799Z,101418.97
2023-08-10T08:21:38.229Z,101446.97
2023-08-10T08:24:04.912Z,101425.50
2023-08-10T08:26:33.483Z,101465.59
2023-08-10T08:29:00.075Z,101434.06
2023-08-10T08:31:27.273Z,101465.59
2023-08-10T08:33:54.549Z,101350.56
2023-08-10T08:36:21.054Z,101439.59
2023-08-10T08:38:47.592Z,101455.97
2023-08-10T08:41:18.552Z,101453.50
2023-08-10T08:43:45.986Z,101458.16
2023-08-10T08:46:13.687Z,101427.81
2023-08-10T08:48:40.496Z,101428.25
2023-08-10T08:51:06.956Z,101373.97
2023-08-10T08:53:34.838Z,101352.69
2023-08-10T08:56:02.328Z,101421.13
2023-08-10T08:58:28.707Z,101452.56
2023-08-10T09:00:55.861Z,101429.53
2023-08-10T09:03:29.249Z,101426.03
2023-08-10T09:05:56.013Z,101443.06
2023-08-10T09:08:23.037Z,101393.59
2023-08-10T09:10:49.800Z,101350.53
2023-08-10T09:13:22.365Z,101421.06
2023-08-10T09:16:04.842Z,101408.56
2023-08-10T09:18:33.892Z,101435.59
2023-08-10T09:21:16.911Z,101432.38
2023-08-10T09:23:46.275Z,101399.91
2023-08-10T09:26:15.743Z,101422.41
2023-08-10T09:28:42.204Z,101413.31
2023-08-10T09:31:11.911Z,101321.88
2023-08-10T09:33:40.901Z,101427.59
2023-08-10T09:36:10.013Z,101427.06
2023-08-10T09:38:36.680Z,101412.00
2023-08-10T09:41:14.649Z,101422.19
2023-08-10T09:43:42.834Z,101399.94
2023-08-10T09:46:11.031Z,101415.84
2023-08-10T09:48:46.100Z,101416.66
2023-08-10T09:51:13.747Z,101400.81
2023-08-10T09:53:40.571Z,101415.31
2023-08-10T09:56:09.969Z,101425.53
2023-08-10T09:58:42.544Z,101382.03
2023-08-10T10:01:16.649Z,101331.34
2023-08-10T10:03:45.675Z,101368.13
2023-08-10T10:06:16.399Z,101318.50
2023-08-10T10:08:52.992Z,101406.19
2023-08-10T10:11:22.004Z,101380.59
2023-08-10T10:13:48.742Z,101415.41
2023-08-10T10:16:15.656Z,101414.16
2023-08-10T10:18:42.272Z,101387.28
2023-08-10T10:21:08.963Z,101399.72
2023-08-10T10:23:41.925Z,101390.09
2023-08-10T10:26:08.790Z,101354.97
2023-08-10T10:28:35.798Z,101359.63
2023-08-10T10:31:14.759Z,101403.63
2023-08-10T10:33:55.222Z,101365.66
2023-08-10T10:36:24.922Z,101318.91
2023-08-10T10:39:08.383Z,101351.56
2023-08-10T10:41:38.348Z,101415.47
2023-08-10T10:44:06.136Z,101437.75
2023-08-10T10:46:32.663Z,101439.16
2023-08-10T10:49:05.792Z,101428.97
2023-08-10T10:51:32.486Z,101329.44
2023-08-10T10:53:59.417Z,101350.03
2023-08-10T10:56:26.530Z,101392.81
2023-08-10T10:58:53.079Z,101387.84
2023-08-10T11:01:23.198Z,101285.69
2023-08-10T11:03:54.777Z,101334.50
2023-08-10T11:06:22.129Z,101416.81
2023-08-10T11:08:52.911Z,101394.81
2023-08-10T11:11:19.454Z,101409.34
2023-08-10T11:13:45.954Z,101356.41
2023-08-10T11:16:12.715Z,101347.56
2023-08-10T11:18:39.244Z,101347.69
2023-08-10T11:21:10.129Z,101321.38
2023-08-10T11:23:37.030Z,101408.00
2023-08-10T11:26:04.063Z,101325.81
2023-08-10T11:28:30.682Z,101288.44
2023-08-10T11:31:05.197Z,101321.84
2023-08-10T11:33:31.746Z,101290.44
2023-08-10T11:35:59.996Z,101293.03
2023-08-10T11:38:26.693Z,101268.63
2023-08-10T11:40:58.689Z,101384.94
2023-08-10T11:43:26.374Z,101234.19
2023-08-10T11:45:55.805Z,101310.13
2023-08-10T11:48:23.369Z,101352.00
2023-08-10T11:50:59.296Z,101297.94
2023-08-10T11:53:33.667Z,101353.47
2023-08-10T11:56:00.511Z,101300.63
2023-08-10T11:58:32.881Z,101378.91
2023-08-10T12:01:03.761Z,101308.66
2023-08-10T12:03:35.433Z,101302.84
2023-08-10T12:06:06.141Z,101375.47
2023-08-10T12:08:37.543Z,101374.25
2023-08-10T12:11:09.031Z,101292.44
2023-08-10T12:13:47.069Z,101372.53
2023-08-10T12:16:15.441Z,101349.19
2023-08-10T12:18:42.311Z,101374.25
2023-08-10T12:21:09.366Z,101304.16
2023-08-10T12:23:35.855Z,101208.03
2023-08-10T12:26:02.510Z,101316.28
2023-08-10T12:28:28.920Z,101319.03
2023-08-10T12:30:55.507Z,101238.25
2023-08-10T12:33:22.002Z,101363.13
2023-08-10T12:35:50.283Z,101281.81
2023-08-10T12:38:19.523Z,101357.03
2023-08-10T12:40:46.261Z,101336.94
2023-08-10T12:43:12.741Z,101356.28
2023-08-10T12:45:39.362Z,101343.13
2023-08-10T12:48:06.181Z,101362.94
2023-08-10T12:50:32.819Z,101295.63
2023-08-10T12:52:59.321Z,101370.50
2023-08-10T12:55:25.729Z,101338.19
2023-08-10T12:57:52.212Z,101348.22
2023-08-10T13:00:21.685Z,101328.09
2023-08-10T13:02:52.225Z,101378.50
2023-08-10T13:05:19.253Z,101314.63
2023-08-10T13:07:47.110Z,101380.31
2023-08-10T13:10:18.583Z,101312.69
2023-08-10T13:12:45.300Z,101254.28
2023-08-10T13:15:12.121Z,101373.81
2023-08-10T13:17:39.142Z,101370.31
2023-08-10T13:20:06.269Z,101340.69
2023-08-10T13:22:37.102Z,101354.81
2023-08-10T13:25:07.657Z,101359.28
2023-08-10T13:27:34.468Z,101363.28
2023-08-10T13:30:01.132Z,101351.38
2023-08-10T13:32:27.886Z,101282.41
2023-08-10T13:34:54.518Z,101337.16
2023-08-10T13:37:21.170Z,101358.94
2023-08-10T13:39:47.581Z,101379.44
2023-08-10T13:42:14.118Z,101360.72
2023-08-10T13:44:40.654Z,101345.41
2023-08-10T13:47:07.105Z,101282.47
2023-08-10T13:49:49.013Z,101272.44
2023-08-10T13:52:20.119Z,101317.38
2023-08-10T13:54:46.676Z,101287.72
2023-08-10T13:57:13.175Z,101268.00
2023-08-10T13:59:41.021Z,101257.22
2023-08-10T14:02:09.770Z,101266.94
2023-08-10T14:04:36.815Z,101265.69
2023-08-10T14:07:05.272Z,101309.31
2023-08-10T14:09:32.849Z,101325.78
2023-08-10T14:11:59.615Z,101334.81
2023-08-10T14:14:27.357Z,101336.84
2023-08-10T14:16:53.850Z,101324.16
2023-08-10T14:19:20.366Z,101280.16
2023-08-10T14:21:46.939Z,101223.84
2023-08-10T14:24:13.474Z,101295.31
2023-08-10T14:26:39.920Z,101318.50
2023-08-10T14:29:07.622Z,101261.84
2023-08-10T14:31:34.772Z,101308.22
2023-08-10T14:34:01.442Z,101224.59
2023-08-10T14:36:28.087Z,101233.41
2023-08-10T14:38:54.577Z,101283.38
2023-08-10T14:41:21.078Z,101253.94
2023-08-10T14:43:47.717Z,101283.56
2023-08-10T14:46:14.508Z,101248.28
2023-08-10T14:48:40.962Z,101259.47
2023-08-10T14:51:07.975Z,101317.78
2023-08-10T14:53:34.426Z,101234.19
2023-08-10T14:56:00.921Z,101247.72
2023-08-10T14:58:27.702Z,101245.38
2023-08-10T15:00:54.806Z,101255.56
2023-08-10T15:03:25.288Z,101242.78
2023-08-10T15:05:51.912Z,101250.09
2023-08-10T15:08:18.429Z,101213.50
2023-08-10T15:10:45.413Z,101231.44
2023-08-10T15:13:12.136Z,101186.50
2023-08-10T15:15:38.631Z,101258.38
2023-08-10T15:18:05.359Z,101247.13
2023-08-10T15:20:32.199Z,101217.72
2023-08-10T15:23:09.165Z,101213.31
2023-08-10T15:25:42.334Z,101208.25
2023-08-10T15:28:08.862Z,101239.13
2023-08-10T15:30:35.535Z,101310.28
2023-08-10T15:33:02.187Z,101254.09
2023-08-10T15:35:29.389Z,101310.22
2023-08-10T15:37:55.868Z,101279.47
2023-08-10T15:40:22.483Z,101222.88
2023-08-10T15:42:49.012Z,101257.00
2023-08-10T15:45:15.481Z,101294.81
2023-08-10T15:47:41.897Z,101289.44
2023-08-10T15:50:13.323Z,101297.00
2023-08-10T15:52:41.837Z,101280.25
2023-08-10T15:55:08.789Z,101278.03
2023-08-10T15:57:35.763Z,101199.97
2023-08-10T16:00:05.774Z,101218.31
2023-08-10T16:02:32.451Z,101219.03
2023-08-10T16:04:59.001Z,101183.78
2023-08-10T16:07:25.370Z,101217.16
2023-08-10T16:09:52.581Z,101250.28
2023-08-10T16:12:19.044Z,101199.53
2023-08-10T16:14:48.832Z,101177.63
2023-08-10T16:17:15.215Z,101215.47
2023-08-10T16:19:41.585Z,101263.41
2023-08-10T16:22:08.189Z,101211.81
2023-08-10T16:24:34.840Z,101243.63
2023-08-10T16:27:01.297Z,101243.47
2023-08-10T16:29:27.825Z,101165.03
2023-08-10T16:31:54.379Z,101257.53
2023-08-10T16:34:20.833Z,101237.44
2023-08-10T16:36:47.277Z,101188.97
2023-08-10T16:39:13.776Z,101206.44
2023-08-10T16:41:40.224Z,101210.88
2023-08-10T16:44:07.094Z,101256.38
2023-08-10T16:46:38.841Z,101208.66
2023-08-10T16:49:07.968Z,101226.56
2023-08-10T16:51:34.701Z,101212.09
2023-08-10T16:54:01.112Z,101275.22
2023-08-10T16:56:27.774Z,101295.03
2023-08-10T16:58:54.228Z,101292.03
2023-08-10T17:01:20.684Z,101277.84
2023-08-10T17:03:47.195Z,101280.88
2023-08-10T17:06:13.639Z,101258.34
2023-08-10T17:08:40.066Z,101291.28
2023-08-10T17:11:06.500Z,101288.06
2023-08-10T17:13:32.888Z,101249.59
2023-08-10T17:15:59.318Z,101301.19
2023-08-10T17:18:25.722Z,101282.19
2023-08-10T17:20:52.132Z,101299.53
2023-08-10T17:23:18.645Z,101231.09
2023-08-10T17:25:45.073Z,101287.88
2023-08-10T17:28:12.471Z,101253.03
2023-08-10T17:30:38.969Z,101286.03
2023-08-10T17:33:05.796Z,101271.63
2023-08-10T17:35:33.258Z,101210.97
2023-08-10T17:37:59.873Z,101238.19
2023-08-10T17:40:26.462Z,101284.22
2023-08-10T17:42:52.904Z,101285.03
2023-08-10T17:45:19.364Z,101286.75
2023-08-10T17:47:45.831Z,101155.44
2023-08-10T17:50:12.281Z,101281.88
2023-08-10T17:52:39.386Z,101295.56
2023-08-10T17:55:07.119Z,101283.22
2023-08-10T17:57:36.632Z,101219.00
2023-08-10T18:00:11.611Z,101294.66
2023-08-10T18:02:38.753Z,101211.94
2023-08-10T18:05:08.996Z,101312.78
2023-08-10T18:07:36.274Z,101266.00
2023-08-10T18:10:02.922Z,101283.44
2023-08-10T18:12:29.373Z,101242.31
2023-08-10T18:14:55.970Z,101302.91
2023-08-10T18:17:23.258Z,101268.41
2023-08-10T18:19:49.854Z,101291.25
2023-08-10T18:22:16.560Z,101228.09
2023-08-10T18:24:44.136Z,101259.16
2023-08-10T18:27:10.642Z,101238.00
2023-08-10T18:29:39.296Z,101279.22
2023-08-10T18:32:06.684Z,101249.28
2023-08-10T18:34:34.760Z,101262.97
2023-08-10T18:37:02.211Z,101277.38
2023-08-10T18:39:28.844Z,101255.69
2023-08-10T18:41:55.463Z,101207.06
2023-08-10T18:44:24.796Z,101261.50
2023-08-10T18:46:51.777Z,101246.88
2023-08-10T18:49:19.053Z,101217.81
2023-08-10T18:51:47.248Z,101268.00
2023-08-10T18:54:13.822Z,101253.97
2023-08-10T18:56:40.506Z,101263.84
2023-08-10T18:59:06.935Z,101214.84
2023-08-10T19:01:33.545Z,101250.28
2023-08-10T19:03:59.970Z,101265.44
2023-08-10T19:06:26.325Z,101296.19
2023-08-10T19:08:52.971Z,101291.47
2023-08-10T19:11:19.621Z,101303.41
2023-08-10T19:13:51.218Z,101313.66
2023-08-10T19:16:17.672Z,101295.13
2023-08-10T19:18:45.931Z,101198.66
2023-08-10T19:21:15.816Z,101308.91
2023-08-10T19:23:42.777Z,101283.22
2023-08-10T19:26:09.384Z,101274.75
2023-08-10T19:28:38.575Z,101301.63
2023-08-10T19:31:09.358Z,101307.16
2023-08-10T19:33:36.590Z,101288.31
2023-08-10T19:36:04.484Z,101293.47
2023-08-10T19:38:33.237Z,101320.56
2023-08-10T19:40:59.665Z,101287.50
2023-08-10T19:43:26.576Z,101215.94
2023-08-10T19:45:53.458Z,101330.41
2023-08-10T19:48:20.099Z,101314.09
2023-08-10T19:50:47.100Z,101279.59
2023-08-10T19:53:14.462Z,101256.38
2023-08-10T19:55:40.924Z,101266.09
2023-08-10T19:58:07.650Z,101272.88
2023-08-10T20:00:34.564Z,101248.84
2023-08-10T20:03:01.201Z,101281.34
2023-08-10T20:05:27.757Z,101300.63
2023-08-10T20:07:54.261Z,101247.63
2023-08-10T20:10:23.474Z,101277.00
2023-08-10T20:12:50.329Z,101326.91
2023-08-10T20:15:16.987Z,101299.38
2023-08-10T20:17:43.515Z,101349.72
2023-08-10T20:20:13.200Z,101277.38
2023-08-10T20:22:39.744Z,101252.03
2023-08-10T20:25:09.425Z,101303.94
2023-08-10T20:27:38.436Z,101349.41
2023-08-10T20:30:10.255Z,101329.66
2023-08-10T20:32:36.782Z,101315.09
2023-08-10T20:35:03.897Z,101255.44
2023-08-10T20:37:30.481Z,101254.44
2023-08-10T20:39:56.903Z,101321.25
2023-08-10T20:42:23.478Z,101355.13
2023-08-10T20:44:49.903Z,101264.56
2023-08-10T20:47:16.677Z,101366.53
2023-08-10T20:49:43.484Z,101334.47
2023-08-10T20:52:10.036Z,101361.06
2023-08-10T20:54:36.691Z,101321.09
2023-08-10T20:57:03.847Z,101344.19
2023-08-10T20:59:34.892Z,101333.03
2023-08-10T21:02:05.046Z,101338.41
2023-08-10T21:04:31.541Z,101348.84
2023-08-10T21:06:58.142Z,101367.75
2023-08-10T21:09:25.217Z,101323.53
2023-08-10T21:11:52.339Z,101355.22
2023-08-10T21:14:18.868Z,101273.66
2023-08-10T21:16:45.446Z,101257.75
2023-08-10T21:19:11.912Z,101387.09
2023-08-10T21:21:38.302Z,101285.75
2023-08-10T21:24:06.300Z,101218.78
2023-08-10T21:26:32.664Z,101357.88
2023-08-10T21:28:59.280Z,101292.44
2023-08-10T21:31:25.721Z,101349.50
2023-08-10T21:33:52.212Z,101373.16
2023-08-10T21:36:19.057Z,101335.34
2023-08-10T21:38:45.464Z,101358.44
2023-08-10T21:41:11.883Z,101262.91
2023-08-10T21:43:38.376Z,101365.13
2023-08-10T21:46:05.617Z,101366.84
2023-08-10T21:48:32.094Z,101363.72
2023-08-10T21:50:58.694Z,101356.44
2023-08-10T21:53:25.250Z,101342.41
2023-08-10T21:55:51.713Z,101273.66
2023-08-10T21:58:18.132Z,101363.22
2023-08-10T22:00:44.674Z,101337.16
2023-08-10T22:03:11.257Z,101326.97
2023-08-10T22:05:37.829Z,101369.56
2023-08-10T22:08:04.430Z,101258.97
2023-08-10T22:10:30.944Z,101346.19
2023-08-10T22:12:57.381Z,101320.56
2023-08-10T22:15:23.778Z,101329.34
2023-08-10T22:17:50.187Z,101358.28
2023-08-10T22:20:16.739Z,101244.00
2023-08-10T22:25:15.400Z,101334.97
2023-08-10T22:27:41.772Z,101218.91
2023-08-10T22:30:14.620Z,101355.13
2023-08-10T22:32:41.905Z,101276.34
2023-08-10T22:35:11.182Z,101213.34
2023-08-10T22:37:37.728Z,101268.50
2023-08-10T22:40:07.059Z,101320.66
2023-08-10T22:42:33.662Z,101320.25
2023-08-10T22:45:00.098Z,101323.69
2023-08-10T22:47:26.649Z,101353.09
2023-08-10T22:49:53.096Z,101337.34
2023-08-10T22:52:19.677Z,101303.00
2023-08-10T22:54:46.253Z,101317.13
2023-08-10T22:57:13.830Z,101341.56
2023-08-10T22:59:40.608Z,101337.97
2023-08-10T23:02:07.255Z,101330.91
2023-08-10T23:04:34.208Z,101323.19
2023-08-10T23:07:01.530Z,101323.69
2023-08-10T23:09:27.970Z,101333.47
2023-08-10T23:11:54.370Z,101313.38
2023-08-10T23:14:20.864Z,101300.63
2023-08-10T23:16:50.155Z,101306.13
2023-08-10T23:19:18.024Z,101248.16
2023-08-10T23:21:44.397Z,101272.75
2023-08-10T23:24:10.798Z,101309.63
2023-08-10T23:26:37.256Z,101348.13
2023-08-10T23:29:04.537Z,101291.88
2023-08-10T23:31:31.089Z,101334.53
2023-08-10T23:33:57.846Z,101287.38
2023-08-10T23:36:24.210Z,101284.81
2023-08-10T23:38:51.987Z,101285.66
2023-08-10T23:41:18.671Z,101319.94
2023-08-10T23:43:46.163Z,101303.22
2023-08-10T23:48:39.403Z,101288.28
2023-08-10T23:51:06.552Z,101237.53
2023-08-10T23:53:33.113Z,101278.63
2023-08-10T23:55:59.553Z,101254.19
2023-08-10T23:58:37.396Z,101255.06
